createdAt,value
2022-09-28T00:01:25.511Z,2.00
2022-09-28T00:03:57.632Z,2.50
2022-09-28T00:08:55.879Z,2.10
2022-09-28T00:11:27.491Z,2.00
2022-09-28T00:13:59.497Z,2.30
2022-09-28T00:16:30.537Z,2.30
2022-09-28T00:18:59.358Z,2.40
2022-09-28T00:21:29.752Z,2.50
2022-09-28T00:24:12.082Z,2.50
2022-09-28T00:29:16.634Z,2.20
2022-09-28T00:31:45.768Z,3.00
2022-09-28T00:34:15.579Z,3.10
2022-09-28T00:36:46.002Z,3.50
2022-09-28T00:39:15.528Z,3.80
2022-09-28T00:41:44.369Z,4.00
2022-09-28T00:44:38.090Z,3.00
2022-09-28T00:47:18.954Z,2.80
2022-09-28T00:49:53.396Z,3.70
2022-09-28T00:52:26.623Z,3.60
2022-09-28T00:54:57.494Z,3.60
2022-09-28T00:57:27.543Z,3.20
2022-09-28T00:59:56.563Z,2.80
2022-09-28T01:02:25.216Z,6.80
2022-09-28T01:04:54.324Z,11.10
2022-09-28T01:07:23.321Z,10.70
2022-09-28T01:09:54.041Z,14.90
2022-09-28T01:12:22.908Z,19.80
2022-09-28T01:14:52.392Z,21.20
2022-09-28T01:17:25.808Z,4.50
2022-09-28T01:20:26.279Z,3.10
2022-09-28T01:23:42.948Z,3.50
2022-09-28T01:26:42.473Z,10.90
2022-09-28T01:29:22.114Z,5.30
2022-09-28T01:31:56.709Z,6.90
2022-09-28T01:34:31.866Z,3.00
2022-09-28T01:37:04.494Z,5.70
2022-09-28T01:39:38.155Z,5.80
2022-09-28T01:42:11.863Z,3.20
2022-09-28T01:44:45.679Z,2.60
2022-09-28T01:47:19.439Z,5.50
2022-09-28T01:49:52.847Z,7.00
2022-09-28T01:52:27.345Z,8.70
2022-09-28T01:54:58.841Z,3.90
2022-09-28T01:57:34.025Z,3.20
2022-09-28T02:00:09.961Z,2.60
2022-09-28T02:02:48.493Z,3.40
2022-09-28T02:05:21.381Z,5.40
2022-09-28T02:07:59.401Z,6.30
2022-09-28T02:10:33.282Z,6.50
2022-09-28T02:13:05.521Z,31.10
2022-09-28T02:15:42.259Z,36.20
2022-09-28T02:18:11.124Z,12.90
2022-09-28T02:20:42.428Z,11.50
2022-09-28T02:23:11.184Z,7.20
2022-09-28T02:25:45.145Z,3.60
2022-09-28T02:28:14.502Z,3.50
2022-09-28T02:30:44.468Z,4.20
2022-09-28T02:33:17.974Z,2.90
2022-09-28T02:35:46.887Z,3.60
2022-09-28T02:38:15.867Z,3.20
2022-09-28T02:40:53.258Z,3.30
2022-09-28T02:43:26.204Z,3.90
2022-09-28T02:46:11.535Z,7.30
2022-09-28T02:49:21.414Z,4.70
2022-09-28T02:52:05.785Z,3.60
2022-09-28T02:55:02.534Z,3.70
2022-09-28T02:57:46.208Z,3.90
2022-09-28T03:00:18.760Z,8.50
2022-09-28T03:02:59.578Z,6.50
2022-09-28T03:05:38.517Z,3.80
2022-09-28T03:08:15.161Z,3.70
2022-09-28T03:10:48.430Z,3.50
2022-09-28T03:13:17.875Z,3.30
2022-09-28T03:15:48.868Z,4.10
2022-09-28T03:18:19.088Z,5.20
2022-09-28T03:20:49.333Z,4.40
2022-09-28T03:23:24.652Z,3.80
2022-09-28T03:25:54.341Z,4.90
2022-09-28T03:28:23.192Z,4.90
2022-09-28T03:30:51.782Z,5.20
2022-09-28T03:33:20.672Z,4.60
2022-09-28T03:35:50.129Z,4.00
2022-09-28T03:38:19.221Z,4.00
2022-09-28T03:40:54.783Z,3.90
2022-09-28T03:43:24.525Z,4.40
2022-09-28T03:45:54.434Z,4.10
2022-09-28T03:48:27.731Z,4.10
2022-09-28T03:51:02.280Z,4.00
2022-09-28T03:53:31.031Z,3.90
2022-09-28T03:56:04.403Z,4.00
2022-09-28T03:58:33.663Z,4.20
2022-09-28T04:01:04.076Z,4.00
2022-09-28T04:03:33.220Z,4.60
2022-09-28T04:06:01.868Z,5.30
2022-09-28T04:08:30.513Z,4.80
2022-09-28T04:10:59.664Z,5.90
2022-09-28T04:13:29.494Z,5.80
2022-09-28T04:16:00.450Z,4.50
2022-09-28T04:18:32.345Z,4.10
2022-09-28T04:21:14.853Z,4.20
2022-09-28T04:23:48.169Z,5.00
2022-09-28T04:26:20.617Z,6.80
2022-09-28T04:29:07.767Z,5.50
2022-09-28T04:31:41.864Z,10.40
2022-09-28T04:34:11.006Z,80.00
2022-09-28T04:36:40.935Z,15.30
2022-09-28T04:39:11.066Z,5.30
2022-09-28T04:41:39.952Z,6.90
2022-09-28T04:44:09.365Z,7.50
2022-09-28T04:46:37.961Z,5.90
2022-09-28T04:49:26.801Z,5.20
2022-09-28T04:51:58.377Z,5.50
2022-09-28T04:54:26.833Z,5.00
2022-09-28T04:56:55.358Z,4.20
2022-09-28T04:59:24.240Z,4.20
2022-09-28T05:01:53.493Z,4.40
2022-09-28T05:04:25.769Z,4.70
2022-09-28T05:07:30.919Z,4.20
2022-09-28T05:10:01.488Z,4.50
2022-09-28T05:12:32.377Z,4.20
2022-09-28T05:15:01.716Z,4.10
2022-09-28T05:17:31.342Z,4.00
2022-09-28T05:20:08.447Z,4.70
2022-09-28T05:22:37.106Z,5.50
2022-09-28T05:25:08.336Z,5.20
2022-09-28T05:27:47.931Z,5.10
2022-09-28T05:30:36.135Z,5.20
2022-09-28T05:33:37.577Z,4.80
2022-09-28T05:36:12.985Z,5.00
2022-09-28T05:38:41.703Z,5.80
2022-09-28T05:41:11.039Z,6.50
2022-09-28T05:43:40.681Z,5.80
2022-09-28T05:46:09.245Z,6.20
2022-09-28T05:48:40.544Z,7.20
2022-09-28T05:51:09.881Z,8.50
2022-09-28T05:53:38.536Z,8.10
2022-09-28T05:56:07.850Z,5.80
2022-09-28T05:58:38.473Z,5.20
2022-09-28T06:01:07.277Z,5.00
2022-09-28T06:03:35.977Z,4.70
2022-09-28T06:06:04.763Z,4.40
2022-09-28T06:08:33.724Z,4.50
2022-09-28T06:11:15.917Z,4.60
2022-09-28T06:13:44.568Z,4.20
2022-09-28T06:16:16.276Z,4.50
2022-09-28T06:18:44.896Z,4.90
2022-09-28T06:21:14.054Z,4.50
2022-09-28T06:23:49.336Z,4.10
2022-09-28T06:26:19.369Z,4.20
2022-09-28T06:28:48.017Z,4.50
2022-09-28T06:31:17.369Z,4.80
2022-09-28T06:33:50.487Z,4.10
2022-09-28T06:36:20.278Z,4.00
2022-09-28T06:38:48.943Z,4.70
2022-09-28T06:41:17.799Z,4.20
2022-09-28T06:43:48.894Z,3.70
2022-09-28T06:46:40.718Z,4.40
2022-09-28T06:49:27.145Z,3.60
2022-09-28T06:52:14.438Z,3.50
2022-09-28T06:55:01.584Z,2.90
2022-09-28T06:57:43.388Z,2.90
2022-09-28T07:00:14.416Z,2.70
2022-09-28T07:02:45.601Z,2.80
2022-09-28T07:05:36.432Z,2.40
2022-09-28T07:08:26.097Z,2.70
2022-09-28T07:11:26.313Z,2.30
2022-09-28T07:14:44.752Z,2.70
2022-09-28T07:17:16.176Z,4.40
2022-09-28T07:19:45.152Z,3.40
2022-09-28T07:22:18.443Z,5.60
2022-09-28T07:24:48.485Z,3.40
2022-09-28T07:27:37.049Z,5.20
2022-09-28T07:30:26.071Z,7.80
2022-09-28T07:33:03.195Z,4.90
2022-09-28T07:35:52.377Z,4.20
2022-09-28T07:38:22.370Z,2.80
2022-09-28T07:41:09.502Z,2.70
2022-09-28T07:43:39.931Z,3.70
2022-09-28T07:46:11.344Z,2.80
2022-09-28T07:48:45.144Z,2.10
2022-09-28T07:51:36.821Z,2.30
2022-09-28T07:54:20.684Z,2.20
2022-09-28T07:57:08.108Z,2.10
2022-09-28T07:59:55.677Z,3.20
2022-09-28T08:02:42.667Z,2.70
2022-09-28T08:05:12.107Z,2.90
2022-09-28T08:07:42.378Z,3.80
2022-09-28T08:10:11.660Z,5.30
2022-09-28T08:13:06.526Z,3.00
2022-09-28T08:15:45.534Z,3.70
2022-09-28T08:18:34.082Z,3.90
2022-09-28T08:21:21.940Z,7.50
2022-09-28T08:23:51.155Z,6.70
2022-09-28T08:26:19.955Z,4.30
2022-09-28T08:28:48.648Z,5.30
2022-09-28T08:31:47.175Z,4.60
2022-09-28T08:34:34.757Z,2.60
2022-09-28T08:37:09.688Z,2.40
2022-09-28T08:39:56.515Z,2.50
2022-09-28T08:42:56.142Z,3.00
2022-09-28T08:45:34.384Z,6.70
2022-09-28T08:48:45.684Z,4.60
2022-09-28T08:51:47.723Z,2.70
2022-09-28T08:54:41.162Z,2.50
2022-09-28T08:59:51.702Z,2.10
2022-09-28T09:02:33.921Z,1.90
2022-09-28T09:05:18.520Z,2.00
2022-09-28T09:08:15.368Z,2.80
2022-09-28T09:10:53.278Z,3.50
2022-09-28T09:13:51.923Z,4.00
2022-09-28T09:16:32.293Z,2.90
2022-09-28T09:22:10.666Z,1.30
2022-09-28T09:24:48.258Z,1.60
2022-09-28T09:27:36.961Z,2.00
2022-09-28T09:30:10.231Z,1.90
2022-09-28T09:33:04.507Z,2.30
2022-09-28T09:36:05.931Z,1.80
2022-09-28T09:39:07.213Z,1.50
2022-09-28T09:42:06.094Z,1.80
2022-09-28T09:45:31.069Z,1.50
2022-09-28T09:48:18.292Z,1.30
2022-09-28T09:50:52.639Z,1.40
2022-09-28T09:53:28.246Z,1.20
2022-09-28T09:56:02.199Z,0.70
2022-09-28T09:59:03.919Z,1.30
2022-09-28T10:01:40.186Z,1.10
2022-09-28T10:04:24.308Z,1.10
2022-09-28T10:06:58.460Z,1.10
2022-09-28T10:09:31.696Z,1.20
2022-09-28T10:12:19.220Z,0.90
2022-09-28T10:14:48.956Z,1.30
2022-09-28T10:17:19.481Z,1.40
2022-09-28T10:20:14.425Z,1.40
2022-09-28T10:23:01.480Z,1.20
2022-09-28T10:25:33.240Z,1.60
2022-09-28T10:28:03.036Z,1.30
2022-09-28T10:30:43.568Z,1.60
2022-09-28T10:33:30.255Z,1.30
2022-09-28T10:35:59.924Z,1.10
2022-09-28T10:38:30.652Z,1.20
2022-09-28T10:41:12.812Z,1.00
2022-09-28T10:44:05.839Z,1.20
2022-09-28T10:46:55.250Z,1.40
2022-09-28T10:49:27.887Z,1.30
2022-09-28T10:51:59.080Z,1.30
2022-09-28T10:54:32.253Z,0.70
2022-09-28T10:57:02.247Z,0.90
2022-09-28T10:59:46.944Z,0.70
2022-09-28T11:02:40.198Z,0.80
2022-09-28T11:05:22.626Z,0.80
2022-09-28T11:07:54.716Z,0.80
2022-09-28T11:10:28.589Z,0.80
2022-09-28T11:13:00.693Z,1.00
2022-09-28T11:15:32.864Z,0.80
2022-09-28T11:18:21.700Z,1.20
2022-09-28T11:20:51.070Z,1.40
2022-09-28T11:23:26.398Z,2.40
2022-09-28T11:26:04.181Z,1.70
2022-09-28T11:28:36.902Z,1.00
2022-09-28T11:31:11.494Z,0.70
2022-09-28T11:34:16.216Z,1.10
2022-09-28T11:37:19.725Z,0.90
2022-09-28T11:39:55.755Z,0.70
2022-09-28T11:42:37.035Z,0.70
2022-09-28T11:45:25.475Z,0.60
2022-09-28T11:47:59.314Z,1.20
2022-09-28T11:50:35.347Z,1.10
2022-09-28T11:53:18.050Z,1.10
2022-09-28T11:55:51.503Z,1.00
2022-09-28T11:58:27.450Z,6.10
2022-09-28T12:01:03.025Z,1.50
2022-09-28T12:03:50.433Z,3.30
2022-09-28T12:06:25.284Z,2.00
2022-09-28T12:09:02.468Z,7.10
2022-09-28T12:11:54.281Z,6.00
2022-09-28T12:14:38.066Z,5.00
2022-09-28T12:17:19.349Z,3.80
2022-09-28T12:19:55.018Z,2.40
2022-09-28T12:22:31.820Z,2.90
2022-09-28T12:25:02.253Z,2.20
2022-09-28T12:27:38.463Z,5.10
2022-09-28T12:30:15.322Z,2.50
2022-09-28T12:32:49.229Z,3.20
2022-09-28T12:35:28.142Z,2.30
2022-09-28T12:38:17.987Z,1.30
2022-09-28T12:40:53.424Z,0.90
2022-09-28T12:43:53.977Z,2.10
2022-09-28T12:46:36.937Z,2.20
2022-09-28T12:50:20.455Z,1.70
2022-09-28T12:52:36.298Z,2.90
2022-09-28T12:55:36.627Z,2.10
2022-09-28T12:58:20.642Z,1.70
2022-09-28T13:01:00.323Z,1.40
2022-09-28T13:03:50.747Z,1.40
2022-09-28T13:06:46.567Z,3.90
2022-09-28T13:09:21.930Z,11.50
2022-09-28T13:12:04.771Z,7.60
2022-09-28T13:14:58.115Z,2.50
2022-09-28T13:17:40.800Z,1.70
2022-09-28T13:20:23.190Z,1.10
2022-09-28T13:23:01.725Z,0.70
2022-09-28T13:25:35.451Z,0.60
2022-09-28T13:28:05.669Z,0.60
2022-09-28T13:30:36.273Z,0.90
2022-09-28T13:33:07.642Z,0.90
2022-09-28T13:35:42.849Z,1.00
2022-09-28T13:38:46.840Z,1.10
2022-09-28T13:41:19.219Z,0.80
2022-09-28T13:44:12.860Z,1.00
2022-09-28T13:46:51.018Z,0.80
2022-09-28T13:49:25.914Z,0.80
2022-09-28T13:52:05.867Z,0.90
2022-09-28T13:54:59.875Z,1.40
2022-09-28T13:57:41.361Z,1.90
2022-09-28T14:00:21.183Z,5.80
2022-09-28T14:02:58.281Z,6.70
2022-09-28T14:05:47.873Z,7.30
2022-09-28T14:08:39.740Z,4.90
2022-09-28T14:11:46.998Z,9.00
2022-09-28T14:14:49.491Z,10.80
2022-09-28T14:20:22.315Z,3.30
2022-09-28T14:23:24.649Z,4.00
2022-09-28T14:26:40.920Z,2.70
2022-09-28T14:29:22.408Z,2.30
2022-09-28T14:31:51.144Z,8.60
2022-09-28T14:34:33.604Z,14.40
2022-09-28T14:37:23.129Z,7.50
2022-09-28T14:40:09.916Z,6.60
2022-09-28T14:43:01.111Z,9.90
2022-09-28T14:45:37.736Z,14.00
2022-09-28T14:48:14.724Z,20.00
2022-09-28T14:50:43.271Z,28.90
2022-09-28T14:53:13.800Z,15.50
2022-09-28T14:55:49.499Z,6.90
2022-09-28T14:58:24.488Z,5.60
2022-09-28T15:01:00.358Z,2.40
2022-09-28T15:03:32.520Z,28.20
2022-09-28T15:06:01.305Z,19.40
2022-09-28T15:08:39.586Z,36.80
2022-09-28T15:11:13.684Z,29.30
2022-09-28T15:13:43.281Z,9.00
2022-09-28T15:16:15.291Z,5.50
2022-09-28T15:19:05.714Z,10.20
2022-09-28T15:21:36.586Z,101.50
2022-09-28T15:24:24.999Z,62.00
2022-09-28T15:26:53.705Z,210.50
2022-09-28T15:29:26.615Z,667.60
2022-09-28T15:31:55.098Z,481.50
2022-09-28T15:34:50.539Z,444.30
2022-09-28T15:37:21.791Z,46.50
2022-09-28T15:39:52.171Z,7.70
2022-09-28T15:42:21.956Z,4.60
2022-09-28T15:45:22.375Z,2.00
2022-09-28T15:47:55.478Z,1.70
2022-09-28T15:50:26.894Z,2.30
2022-09-28T15:53:00.206Z,3.30
2022-09-28T15:55:31.974Z,4.00
2022-09-28T15:58:15.134Z,3.20
2022-09-28T16:00:45.711Z,2.90
2022-09-28T16:03:24.013Z,2.40
2022-09-28T16:06:06.653Z,2.10
2022-09-28T16:08:41.298Z,1.90
2022-09-28T16:11:18.128Z,2.00
2022-09-28T16:13:55.873Z,1.70
2022-09-28T16:16:29.242Z,1.90
2022-09-28T16:19:00.503Z,2.10
2022-09-28T16:21:44.452Z,2.80
2022-09-28T16:24:25.637Z,2.20
2022-09-28T16:27:00.927Z,2.80
2022-09-28T16:29:39.157Z,2.30
2022-09-28T16:32:41.033Z,2.50
2022-09-28T16:35:18.878Z,2.70
2022-09-28T16:37:48.470Z,2.70
2022-09-28T16:40:17.324Z,2.30
2022-09-28T16:42:49.068Z,2.10
2022-09-28T16:47:52.214Z,2.00
2022-09-28T16:50:22.004Z,2.30
2022-09-28T16:53:14.712Z,2.00
2022-09-28T16:55:43.319Z,29.50
2022-09-28T16:58:12.507Z,16.50
2022-09-28T17:00:42.837Z,13.40
2022-09-28T17:03:14.164Z,8.50
2022-09-28T17:05:44.240Z,10.00
2022-09-28T17:08:16.871Z,7.00
2022-09-28T17:11:13.570Z,3.80
2022-09-28T17:13:40.592Z,3.40
2022-09-28T17:16:13.497Z,4.20
2022-09-28T17:18:42.046Z,2.40
2022-09-28T17:21:15.105Z,2.10
2022-09-28T17:23:43.829Z,2.70
2022-09-28T17:26:21.074Z,2.20
2022-09-28T17:28:49.761Z,2.30
2022-09-28T17:31:24.793Z,2.80
2022-09-28T17:33:53.947Z,2.00
2022-09-28T17:36:26.775Z,2.40
2022-09-28T17:39:00.803Z,2.80
2022-09-28T17:41:31.672Z,4.10
2022-09-28T17:44:03.145Z,2.70
2022-09-28T17:46:49.588Z,3.40
2022-09-28T17:49:18.827Z,4.60
2022-09-28T17:57:07.685Z,12.20
2022-09-28T17:59:38.273Z,12.20
2022-09-28T18:02:12.415Z,9.40
2022-09-28T18:04:52.615Z,9.30
2022-09-28T18:07:22.190Z,9.50
2022-09-28T18:09:56.867Z,8.20
2022-09-28T18:12:28.559Z,9.20
2022-09-28T18:15:00.927Z,9.50
2022-09-28T18:17:34.732Z,11.80
2022-09-28T18:20:12.776Z,11.40
2022-09-28T18:22:49.495Z,10.10
2022-09-28T18:25:23.970Z,7.80
2022-09-28T18:27:56.721Z,11.50
2022-09-28T18:30:31.164Z,10.10
2022-09-28T18:33:01.564Z,9.60
2022-09-28T18:35:30.828Z,9.80
2022-09-28T18:37:59.663Z,9.90
2022-09-28T18:42:59.894Z,9.60
2022-09-28T18:45:29.828Z,14.60
2022-09-28T18:48:01.609Z,12.50
2022-09-28T18:50:30.388Z,16.80
2022-09-28T18:53:12.630Z,21.30
2022-09-28T18:55:44.578Z,15.10
2022-09-28T18:58:18.858Z,16.20
2022-09-28T19:01:08.649Z,22.10
2022-09-28T19:03:50.668Z,24.80
2022-09-28T19:06:26.443Z,33.00
2022-09-28T19:09:11.715Z,37.70
2022-09-28T19:11:46.045Z,32.40
2022-09-28T19:14:19.867Z,32.40
2022-09-28T19:16:54.815Z,24.00
2022-09-28T19:19:30.374Z,27.70
2022-09-28T19:21:59.625Z,29.70
2022-09-28T19:24:43.796Z,31.60
2022-09-28T19:27:12.302Z,36.20
2022-09-28T19:29:43.692Z,43.00
2022-09-28T19:32:15.130Z,39.10
2022-09-28T19:34:43.709Z,28.30
2022-09-28T19:37:16.558Z,31.90
2022-09-28T19:39:50.177Z,30.60
2022-09-28T19:42:19.134Z,26.40
2022-09-28T19:44:51.434Z,24.00
2022-09-28T19:47:21.076Z,22.70
2022-09-28T19:49:49.772Z,20.50
2022-09-28T19:52:18.468Z,18.50
2022-09-28T19:54:55.857Z,16.30
2022-09-28T19:57:26.860Z,15.70
2022-09-28T20:00:00.856Z,13.40
2022-09-28T20:02:29.949Z,12.60
2022-09-28T20:04:58.539Z,18.60
2022-09-28T20:07:27.039Z,16.00
2022-09-28T20:09:55.551Z,7.60
2022-09-28T20:12:24.126Z,5.10
2022-09-28T20:14:52.681Z,4.40
2022-09-28T20:17:21.166Z,3.50
2022-09-28T20:19:51.098Z,2.90
2022-09-28T20:22:20.588Z,2.80
2022-09-28T20:24:49.195Z,2.80
2022-09-28T20:27:17.681Z,2.40
2022-09-28T20:29:46.274Z,3.00
2022-09-28T20:32:15.442Z,2.80
2022-09-28T20:34:43.989Z,3.50
2022-09-28T20:37:13.300Z,2.80
2022-09-28T20:39:44.910Z,3.40
2022-09-28T20:42:15.060Z,3.30
2022-09-28T20:44:43.637Z,3.20
2022-09-28T20:47:12.016Z,3.70
2022-09-28T20:49:40.888Z,4.00
2022-09-28T20:52:09.346Z,3.40
2022-09-28T20:54:37.891Z,3.00
2022-09-28T20:57:16.668Z,3.30
2022-09-28T20:59:47.172Z,2.90
2022-09-28T21:02:18.213Z,3.50
2022-09-28T21:04:46.730Z,3.10
2022-09-28T21:07:15.188Z,3.40
2022-09-28T21:09:43.961Z,3.50
2022-09-28T21:12:14.513Z,3.20
2022-09-28T21:14:43.089Z,3.60
2022-09-28T21:17:11.546Z,6.00
2022-09-28T21:19:40.041Z,8.00
2022-09-28T21:22:08.488Z,6.20
2022-09-28T21:24:37.057Z,3.60
2022-09-28T21:27:05.564Z,3.30
2022-09-28T21:29:34.322Z,3.30
2022-09-28T21:32:03.246Z,3.60
2022-09-28T21:34:32.003Z,2.60
2022-09-28T21:37:00.748Z,2.70
2022-09-28T21:39:29.501Z,2.50
2022-09-28T21:41:58.028Z,2.60
2022-09-28T21:44:26.611Z,2.50
2022-09-28T21:46:55.113Z,2.60
2022-09-28T21:49:23.652Z,2.80
2022-09-28T21:51:52.156Z,2.50
2022-09-28T21:54:20.786Z,2.60
2022-09-28T21:56:49.238Z,2.50
2022-09-28T21:59:18.006Z,3.50
2022-09-28T22:01:47.500Z,4.40
2022-09-28T22:04:16.557Z,4.10
2022-09-28T22:06:44.961Z,3.80
2022-09-28T22:09:13.456Z,3.90
2022-09-28T22:11:42.466Z,3.60
2022-09-28T22:14:11.244Z,3.10
2022-09-28T22:16:40.076Z,3.30
2022-09-28T22:19:08.600Z,3.40
2022-09-28T22:21:37.044Z,3.30
2022-09-28T22:24:07.406Z,3.50
2022-09-28T22:26:36.960Z,3.30
2022-09-28T22:29:08.735Z,3.10
2022-09-28T22:31:39.454Z,2.90
2022-09-28T22:34:09.113Z,2.50
2022-09-28T22:36:38.124Z,2.80
2022-09-28T22:39:06.618Z,2.90
2022-09-28T22:41:35.296Z,2.90
2022-09-28T22:44:03.842Z,2.80
2022-09-28T22:46:34.271Z,2.70
2022-09-28T22:49:02.976Z,2.80
2022-09-28T22:51:32.088Z,2.50
2022-09-28T22:54:00.762Z,2.40
2022-09-28T22:56:29.254Z,2.50
2022-09-28T22:58:57.776Z,2.30
2022-09-28T23:01:28.187Z,2.20
2022-09-28T23:03:58.025Z,2.40
2022-09-28T23:06:28.382Z,2.70
2022-09-28T23:08:57.244Z,2.80
2022-09-28T23:11:25.797Z,2.70
2022-09-28T23:13:56.086Z,2.60
2022-09-28T23:16:25.914Z,2.30
2022-09-28T23:18:55.267Z,2.60
2022-09-28T23:21:25.874Z,2.80
2022-09-28T23:23:56.751Z,2.80
2022-09-28T23:26:26.770Z,3.10
2022-09-28T23:28:55.610Z,4.60
2022-09-28T23:31:25.930Z,3.60
2022-09-28T23:33:59.131Z,3.80
2022-09-28T23:36:28.098Z,4.90
2022-09-28T23:38:56.637Z,4.80
2022-09-28T23:41:25.222Z,4.30
2022-09-28T23:43:54.182Z,3.90
2022-09-28T23:46:22.874Z,3.80
2022-09-28T23:48:51.643Z,4.00
2022-09-28T23:51:20.098Z,3.00
2022-09-28T23:53:48.529Z,2.80
2022-09-28T23:56:17.020Z,3.30
2022-09-28T23:58:45.442Z,2.80
